sensor_id;sensor_type;location;lat;lon;timestamp;temperature;humidity
74822;DHT22;63353;48.702;8.884;2023-06-10T00:00:52;13.70;99.90
74822;DHT22;63353;48.702;8.884;2023-06-10T00:03:21;13.80;99.90
74822;DHT22;63353;48.702;8.884;2023-06-10T00:05:49;13.80;99.90
74822;DHT22;63353;48.702;8.884;2023-06-10T00:08:17;13.80;99.90
74822;DHT22;63353;48.702;8.884;2023-06-10T00:10:45;13.80;99.90
74822;DHT22;63353;48.702;8.884;2023-06-10T00:13:13;13.70;99.90
74822;DHT22;63353;48.702;8.884;2023-06-10T00:15:39;13.70;99.90
74822;DHT22;63353;48.702;8.884;2023-06-10T00:18:08;13.80;99.90
74822;DHT22;63353;48.702;8.884;2023-06-10T00:20:35;13.70;99.90
74822;DHT22;63353;48.702;8.884;2023-06-10T00:23:03;13.60;99.90
74822;DHT22;63353;48.702;8.884;2023-06-10T00:25:28;13.70;99.90
74822;DHT22;63353;48.702;8.884;2023-06-10T00:27:55;13.60;99.90
74822;DHT22;63353;48.702;8.884;2023-06-10T00:30:20;13.60;99.90
74822;DHT22;63353;48.702;8.884;2023-06-10T00:32:46;13.50;99.90
74822;DHT22;63353;48.702;8.884;2023-06-10T00:35:12;13.40;99.90
74822;DHT22;63353;48.702;8.884;2023-06-10T00:37:47;13.30;99.90
74822;DHT22;63353;48.702;8.884;2023-06-10T00:40:13;13.30;99.90
74822;DHT22;63353;48.702;8.884;2023-06-10T00:42:38;13.40;99.90
74822;DHT22;63353;48.702;8.884;2023-06-10T00:45:05;13.30;99.90
74822;DHT22;63353;48.702;8.884;2023-06-10T00:47:36;13.30;99.90
74822;DHT22;63353;48.702;8.884;2023-06-10T00:50:03;13.20;99.90
74822;DHT22;63353;48.702;8.884;2023-06-10T00:52:29;13.20;99.90
74822;DHT22;63353;48.702;8.884;2023-06-10T00:54:58;13.20;99.90
74822;DHT22;63353;48.702;8.884;2023-06-10T00:57:30;13.10;99.90
74822;DHT22;63353;48.702;8.884;2023-06-10T00:59:57;13.10;99.90
74822;DHT22;63353;48.702;8.884;2023-06-10T01:02:29;13.20;99.90
74822;DHT22;63353;48.702;8.884;2023-06-10T01:04:59;13.10;99.90
74822;DHT22;63353;48.702;8.884;2023-06-10T01:13:16;13.00;99.90
74822;DHT22;63353;48.702;8.884;2023-06-10T01:15:49;12.90;99.90
74822;DHT22;63353;48.702;8.884;2023-06-10T01:18:21;12.90;99.90
74822;DHT22;63353;48.702;8.884;2023-06-10T01:20:53;13.00;99.90
74822;DHT22;63353;48.702;8.884;2023-06-10T01:23:22;12.90;99.90
74822;DHT22;63353;48.702;8.884;2023-06-10T01:26:09;12.80;99.90
74822;DHT22;63353;48.702;8.884;2023-06-10T01:28:47;12.80;99.90
74822;DHT22;63353;48.702;8.884;2023-06-10T01:31:23;12.80;99.90
74822;DHT22;63353;48.702;8.884;2023-06-10T01:33:52;12.80;99.90
74822;DHT22;63353;48.702;8.884;2023-06-10T01:36:20;12.80;99.90
74822;DHT22;63353;48.702;8.884;2023-06-10T01:38:50;12.80;99.90
74822;DHT22;63353;48.702;8.884;2023-06-10T01:41:21;12.80;99.90
74822;DHT22;63353;48.702;8.884;2023-06-10T01:43:56;12.80;99.90
74822;DHT22;63353;48.702;8.884;2023-06-10T01:46:22;12.80;99.90
74822;DHT22;63353;48.702;8.884;2023-06-10T01:48:51;12.80;99.90
74822;DHT22;63353;48.702;8.884;2023-06-10T01:51:32;12.70;99.90
74822;DHT22;63353;48.702;8.884;2023-06-10T01:53:57;12.70;99.90
74822;DHT22;63353;48.702;8.884;2023-06-10T01:56:23;12.70;99.90
74822;DHT22;63353;48.702;8.884;2023-06-10T01:58:52;12.60;99.90
74822;DHT22;63353;48.702;8.884;2023-06-10T02:01:23;12.60;99.90
74822;DHT22;63353;48.702;8.884;2023-06-10T02:03:48;12.60;99.90
74822;DHT22;63353;48.702;8.884;2023-06-10T02:06:14;12.50;99.90
74822;DHT22;63353;48.702;8.884;2023-06-10T02:08:46;12.50;99.90
74822;DHT22;63353;48.702;8.884;2023-06-10T02:11:12;12.50;99.90
74822;DHT22;63353;48.702;8.884;2023-06-10T02:13:38;12.50;99.90
74822;DHT22;63353;48.702;8.884;2023-06-10T02:16:04;12.50;99.90
74822;DHT22;63353;48.702;8.884;2023-06-10T02:18:31;12.50;99.90
74822;DHT22;63353;48.702;8.884;2023-06-10T02:21:05;12.60;99.90
74822;DHT22;63353;48.702;8.884;2023-06-10T02:23:35;12.60;99.90
74822;DHT22;63353;48.702;8.884;2023-06-10T02:26:06;12.60;99.90
74822;DHT22;63353;48.702;8.884;2023-06-10T02:28:35;12.60;99.90
74822;DHT22;63353;48.702;8.884;2023-06-10T02:31:07;12.60;99.90
74822;DHT22;63353;48.702;8.884;2023-06-10T02:33:33;12.50;99.90
74822;DHT22;63353;48.702;8.884;2023-06-10T02:35:59;12.40;99.90
74822;DHT22;63353;48.702;8.884;2023-06-10T02:38:27;12.30;99.90
74822;DHT22;63353;48.702;8.884;2023-06-10T02:40:53;12.30;99.90
74822;DHT22;63353;48.702;8.884;2023-06-10T02:43:21;12.20;99.90
74822;DHT22;63353;48.702;8.884;2023-06-10T02:45:47;12.20;99.90
74822;DHT22;63353;48.702;8.884;2023-06-10T02:48:25;12.20;99.90
74822;DHT22;63353;48.702;8.884;2023-06-10T02:50:53;12.20;99.90
74822;DHT22;63353;48.702;8.884;2023-06-10T02:53:24;12.20;99.90
74822;DHT22;63353;48.702;8.884;2023-06-10T02:55:49;12.20;99.90
74822;DHT22;63353;48.702;8.884;2023-06-10T02:58:15;12.10;99.90
74822;DHT22;63353;48.702;8.884;2023-06-10T03:00:44;12.10;99.90
74822;DHT22;63353;48.702;8.884;2023-06-10T03:03:13;12.00;99.90
74822;DHT22;63353;48.702;8.884;2023-06-10T03:05:44;12.00;99.90
74822;DHT22;63353;48.702;8.884;2023-06-10T03:08:13;11.90;99.90
74822;DHT22;63353;48.702;8.884;2023-06-10T03:10:45;12.00;99.90
74822;DHT22;63353;48.702;8.884;2023-06-10T03:13:10;12.00;99.90
74822;DHT22;63353;48.702;8.884;2023-06-10T03:15:36;12.00;99.90
74822;DHT22;63353;48.702;8.884;2023-06-10T03:18:06;12.00;99.90
74822;DHT22;63353;48.702;8.884;2023-06-10T03:20:32;12.00;99.90
74822;DHT22;63353;48.702;8.884;2023-06-10T03:23:06;12.00;99.90
74822;DHT22;63353;48.702;8.884;2023-06-10T03:25:35;11.90;99.90
74822;DHT22;63353;48.702;8.884;2023-06-10T03:28:00;12.10;99.90
74822;DHT22;63353;48.702;8.884;2023-06-10T03:30:32;12.20;99.90
74822;DHT22;63353;48.702;8.884;2023-06-10T03:33:04;12.20;99.90
74822;DHT22;63353;48.702;8.884;2023-06-10T03:35:30;12.10;99.90
74822;DHT22;63353;48.702;8.884;2023-06-10T03:37:58;12.00;99.90
74822;DHT22;63353;48.702;8.884;2023-06-10T03:40:23;12.00;99.90
74822;DHT22;63353;48.702;8.884;2023-06-10T03:42:52;11.90;99.90
74822;DHT22;63353;48.702;8.884;2023-06-10T03:45:18;11.80;99.90
74822;DHT22;63353;48.702;8.884;2023-06-10T03:47:43;11.80;99.90
74822;DHT22;63353;48.702;8.884;2023-06-10T03:50:10;11.70;99.90
74822;DHT22;63353;48.702;8.884;2023-06-10T03:52:37;11.60;99.90
74822;DHT22;63353;48.702;8.884;2023-06-10T03:55:03;11.60;99.90
74822;DHT22;63353;48.702;8.884;2023-06-10T03:57:32;11.60;99.90
74822;DHT22;63353;48.702;8.884;2023-06-10T03:59:58;11.60;99.90
74822;DHT22;63353;48.702;8.884;2023-06-10T04:02:27;11.60;99.90
74822;DHT22;63353;48.702;8.884;2023-06-10T04:04:53;11.60;99.90
74822;DHT22;63353;48.702;8.884;2023-06-10T04:07:18;11.60;99.90
74822;DHT22;63353;48.702;8.884;2023-06-10T04:09:45;11.60;99.90
74822;DHT22;63353;48.702;8.884;2023-06-10T04:12:15;11.70;99.90
74822;DHT22;63353;48.702;8.884;2023-06-10T04:14:41;11.80;99.90
74822;DHT22;63353;48.702;8.884;2023-06-10T04:17:08;11.90;99.90
74822;DHT22;63353;48.702;8.884;2023-06-10T04:19:34;12.00;99.90
74822;DHT22;63353;48.702;8.884;2023-06-10T04:22:01;12.10;99.90
74822;DHT22;63353;48.702;8.884;2023-06-10T04:24:27;12.20;99.90
74822;DHT22;63353;48.702;8.884;2023-06-10T04:26:53;12.20;99.90
74822;DHT22;63353;48.702;8.884;2023-06-10T04:29:19;12.30;99.90
74822;DHT22;63353;48.702;8.884;2023-06-10T04:31:44;12.30;99.90
74822;DHT22;63353;48.702;8.884;2023-06-10T04:34:12;12.40;99.90
74822;DHT22;63353;48.702;8.884;2023-06-10T04:36:38;12.40;99.90
74822;DHT22;63353;48.702;8.884;2023-06-10T04:39:03;12.50;99.90
74822;DHT22;63353;48.702;8.884;2023-06-10T04:41:31;12.60;99.90
74822;DHT22;63353;48.702;8.884;2023-06-10T04:43:57;12.80;99.90
74822;DHT22;63353;48.702;8.884;2023-06-10T04:46:23;12.90;99.90
74822;DHT22;63353;48.702;8.884;2023-06-10T04:48:49;13.10;99.90
74822;DHT22;63353;48.702;8.884;2023-06-10T04:51:15;13.20;99.90
74822;DHT22;63353;48.702;8.884;2023-06-10T04:53:42;13.40;99.90
74822;DHT22;63353;48.702;8.884;2023-06-10T04:56:08;13.50;99.90
74822;DHT22;63353;48.702;8.884;2023-06-10T04:58:34;13.60;99.90
74822;DHT22;63353;48.702;8.884;2023-06-10T05:00:59;13.70;99.90
74822;DHT22;63353;48.702;8.884;2023-06-10T05:03:26;13.80;99.90
74822;DHT22;63353;48.702;8.884;2023-06-10T05:05:52;13.80;99.90
74822;DHT22;63353;48.702;8.884;2023-06-10T05:08:18;13.90;99.90
74822;DHT22;63353;48.702;8.884;2023-06-10T05:10:44;14.00;99.90
74822;DHT22;63353;48.702;8.884;2023-06-10T05:13:09;14.10;99.90
74822;DHT22;63353;48.702;8.884;2023-06-10T05:15:35;14.20;99.90
74822;DHT22;63353;48.702;8.884;2023-06-10T05:18:00;14.40;99.90
74822;DHT22;63353;48.702;8.884;2023-06-10T05:20:28;14.50;99.90
74822;DHT22;63353;48.702;8.884;2023-06-10T05:22:54;14.70;99.90
74822;DHT22;63353;48.702;8.884;2023-06-10T05:25:20;14.80;99.90
74822;DHT22;63353;48.702;8.884;2023-06-10T05:27:46;14.90;99.90
74822;DHT22;63353;48.702;8.884;2023-06-10T05:30:12;15.10;99.90
74822;DHT22;63353;48.702;8.884;2023-06-10T05:32:38;15.30;99.90
74822;DHT22;63353;48.702;8.884;2023-06-10T05:35:04;15.40;99.90
74822;DHT22;63353;48.702;8.884;2023-06-10T05:37:30;15.60;99.90
74822;DHT22;63353;48.702;8.884;2023-06-10T05:39:55;15.70;99.90
74822;DHT22;63353;48.702;8.884;2023-06-10T05:42:21;15.90;99.90
74822;DHT22;63353;48.702;8.884;2023-06-10T05:44:47;16.10;99.90
74822;DHT22;63353;48.702;8.884;2023-06-10T05:47:12;16.20;99.90
74822;DHT22;63353;48.702;8.884;2023-06-10T05:49:38;16.40;99.90
74822;DHT22;63353;48.702;8.884;2023-06-10T05:52:04;16.60;99.90
74822;DHT22;63353;48.702;8.884;2023-06-10T05:54:30;16.70;99.90
74822;DHT22;63353;48.702;8.884;2023-06-10T05:56:56;16.80;99.90
74822;DHT22;63353;48.702;8.884;2023-06-10T05:59:21;16.90;99.90
74822;DHT22;63353;48.702;8.884;2023-06-10T06:01:48;17.10;99.90
74822;DHT22;63353;48.702;8.884;2023-06-10T06:04:15;17.20;99.90
74822;DHT22;63353;48.702;8.884;2023-06-10T06:06:41;17.30;99.90
74822;DHT22;63353;48.702;8.884;2023-06-10T06:09:07;17.50;99.90
74822;DHT22;63353;48.702;8.884;2023-06-10T06:11:34;17.60;99.90
74822;DHT22;63353;48.702;8.884;2023-06-10T06:14:00;17.70;99.90
74822;DHT22;63353;48.702;8.884;2023-06-10T06:16:26;17.90;99.90
74822;DHT22;63353;48.702;8.884;2023-06-10T06:18:51;18.00;99.90
74822;DHT22;63353;48.702;8.884;2023-06-10T06:21:17;18.20;99.90
74822;DHT22;63353;48.702;8.884;2023-06-10T06:23:43;18.40;99.90
74822;DHT22;63353;48.702;8.884;2023-06-10T06:26:08;18.50;99.90
74822;DHT22;63353;48.702;8.884;2023-06-10T06:28:34;18.80;99.90
74822;DHT22;63353;48.702;8.884;2023-06-10T06:31:00;19.00;99.90
74822;DHT22;63353;48.702;8.884;2023-06-10T06:33:26;19.10;99.90
74822;DHT22;63353;48.702;8.884;2023-06-10T06:35:51;19.20;99.90
74822;DHT22;63353;48.702;8.884;2023-06-10T06:38:17;19.30;99.90
74822;DHT22;63353;48.702;8.884;2023-06-10T06:40:43;19.40;99.90
74822;DHT22;63353;48.702;8.884;2023-06-10T06:43:11;19.60;99.90
74822;DHT22;63353;48.702;8.884;2023-06-10T06:45:37;19.70;99.90
74822;DHT22;63353;48.702;8.884;2023-06-10T06:48:03;20.00;99.90
74822;DHT22;63353;48.702;8.884;2023-06-10T06:50:29;20.20;99.90
74822;DHT22;63353;48.702;8.884;2023-06-10T06:52:54;20.40;99.90
74822;DHT22;63353;48.702;8.884;2023-06-10T06:55:20;20.50;99.90
74822;DHT22;63353;48.702;8.884;2023-06-10T06:57:49;20.70;99.90
74822;DHT22;63353;48.702;8.884;2023-06-10T07:00:14;20.90;99.90
74822;DHT22;63353;48.702;8.884;2023-06-10T07:02:40;21.10;99.90
74822;DHT22;63353;48.702;8.884;2023-06-10T07:05:12;21.30;99.90
74822;DHT22;63353;48.702;8.884;2023-06-10T07:07:37;21.20;99.90
74822;DHT22;63353;48.702;8.884;2023-06-10T07:10:03;21.40;99.90
74822;DHT22;63353;48.702;8.884;2023-06-10T07:12:32;21.70;99.90
74822;DHT22;63353;48.702;8.884;2023-06-10T07:15:01;21.90;99.90
74822;DHT22;63353;48.702;8.884;2023-06-10T07:17:30;22.00;99.90
74822;DHT22;63353;48.702;8.884;2023-06-10T07:19:56;22.10;99.90
74822;DHT22;63353;48.702;8.884;2023-06-10T07:22:32;22.30;99.90
74822;DHT22;63353;48.702;8.884;2023-06-10T07:25:01;22.30;99.90
74822;DHT22;63353;48.702;8.884;2023-06-10T07:27:26;22.60;99.90
74822;DHT22;63353;48.702;8.884;2023-06-10T07:29:58;22.70;99.90
74822;DHT22;63353;48.702;8.884;2023-06-10T07:32:26;23.00;99.90
74822;DHT22;63353;48.702;8.884;2023-06-10T07:34:55;23.30;99.90
74822;DHT22;63353;48.702;8.884;2023-06-10T07:37:26;23.50;99.90
74822;DHT22;63353;48.702;8.884;2023-06-10T07:39:52;23.60;99.90
74822;DHT22;63353;48.702;8.884;2023-06-10T07:42:18;23.90;99.90
74822;DHT22;63353;48.702;8.884;2023-06-10T07:44:49;24.00;99.90
74822;DHT22;63353;48.702;8.884;2023-06-10T07:47:15;24.10;99.90
74822;DHT22;63353;48.702;8.884;2023-06-10T07:49:44;24.30;99.90
74822;DHT22;63353;48.702;8.884;2023-06-10T07:52:12;24.50;99.90
74822;DHT22;63353;48.702;8.884;2023-06-10T07:54:38;24.60;99.90
74822;DHT22;63353;48.702;8.884;2023-06-10T07:57:03;24.70;99.90
74822;DHT22;63353;48.702;8.884;2023-06-10T07:59:35;24.70;99.90
74822;DHT22;63353;48.702;8.884;2023-06-10T08:02:16;24.70;99.90
74822;DHT22;63353;48.702;8.884;2023-06-10T08:04:41;24.80;99.90
74822;DHT22;63353;48.702;8.884;2023-06-10T08:07:19;25.00;99.90
74822;DHT22;63353;48.702;8.884;2023-06-10T08:09:45;24.80;99.90
74822;DHT22;63353;48.702;8.884;2023-06-10T08:12:13;24.80;99.90
74822;DHT22;63353;48.702;8.884;2023-06-10T08:14:42;25.10;99.90
74822;DHT22;63353;48.702;8.884;2023-06-10T08:17:07;25.30;99.90
74822;DHT22;63353;48.702;8.884;2023-06-10T08:19:33;25.20;99.90
74822;DHT22;63353;48.702;8.884;2023-06-10T08:21:59;25.40;99.90
74822;DHT22;63353;48.702;8.884;2023-06-10T08:24:27;25.70;99.90
74822;DHT22;63353;48.702;8.884;2023-06-10T08:26:59;25.80;99.90
74822;DHT22;63353;48.702;8.884;2023-06-10T08:29:31;26.00;99.90
74822;DHT22;63353;48.702;8.884;2023-06-10T08:32:03;26.20;99.90
74822;DHT22;63353;48.702;8.884;2023-06-10T08:34:35;26.10;99.90
74822;DHT22;63353;48.702;8.884;2023-06-10T08:37:02;26.50;99.90
74822;DHT22;63353;48.702;8.884;2023-06-10T08:39:28;26.60;99.90
74822;DHT22;63353;48.702;8.884;2023-06-10T08:44:45;26.70;99.90
74822;DHT22;63353;48.702;8.884;2023-06-10T08:47:15;26.80;99.90
74822;DHT22;63353;48.702;8.884;2023-06-10T08:49:43;27.10;99.90
74822;DHT22;63353;48.702;8.884;2023-06-10T08:52:23;27.40;99.90
74822;DHT22;63353;48.702;8.884;2023-06-10T08:55:08;27.50;99.90
74822;DHT22;63353;48.702;8.884;2023-06-10T08:57:36;27.50;99.90
74822;DHT22;63353;48.702;8.884;2023-06-10T09:00:03;27.50;99.90
74822;DHT22;63353;48.702;8.884;2023-06-10T09:02:29;27.60;99.90
74822;DHT22;63353;48.702;8.884;2023-06-10T09:04:59;27.80;99.90
74822;DHT22;63353;48.702;8.884;2023-06-10T09:07:26;27.90;99.90
74822;DHT22;63353;48.702;8.884;2023-06-10T09:09:52;28.00;99.90
74822;DHT22;63353;48.702;8.884;2023-06-10T09:12:25;27.60;99.90
74822;DHT22;63353;48.702;8.884;2023-06-10T09:14:50;27.70;99.90
74822;DHT22;63353;48.702;8.884;2023-06-10T09:17:17;27.60;99.90
74822;DHT22;63353;48.702;8.884;2023-06-10T09:19:44;27.80;99.90
74822;DHT22;63353;48.702;8.884;2023-06-10T09:22:10;28.00;99.90
74822;DHT22;63353;48.702;8.884;2023-06-10T09:24:36;28.00;99.90
74822;DHT22;63353;48.702;8.884;2023-06-10T09:27:06;28.20;99.90
74822;DHT22;63353;48.702;8.884;2023-06-10T09:29:46;28.60;99.90
74822;DHT22;63353;48.702;8.884;2023-06-10T09:32:13;28.80;99.90
74822;DHT22;63353;48.702;8.884;2023-06-10T09:34:39;28.60;99.90
74822;DHT22;63353;48.702;8.884;2023-06-10T09:37:06;28.80;99.90
74822;DHT22;63353;48.702;8.884;2023-06-10T09:39:32;28.80;99.90
74822;DHT22;63353;48.702;8.884;2023-06-10T09:41:57;28.90;99.90
74822;DHT22;63353;48.702;8.884;2023-06-10T09:44:23;29.00;99.90
74822;DHT22;63353;48.702;8.884;2023-06-10T09:46:53;29.40;99.90
74822;DHT22;63353;48.702;8.884;2023-06-10T09:49:29;29.70;99.90
74822;DHT22;63353;48.702;8.884;2023-06-10T09:51:57;29.40;99.90
74822;DHT22;63353;48.702;8.884;2023-06-10T09:54:31;29.40;99.90
74822;DHT22;63353;48.702;8.884;2023-06-10T09:57:07;29.40;99.90
74822;DHT22;63353;48.702;8.884;2023-06-10T09:59:34;29.40;99.90
74822;DHT22;63353;48.702;8.884;2023-06-10T10:02:01;29.50;99.90
74822;DHT22;63353;48.702;8.884;2023-06-10T10:04:27;29.30;99.90
74822;DHT22;63353;48.702;8.884;2023-06-10T10:06:53;28.70;99.90
74822;DHT22;63353;48.702;8.884;2023-06-10T10:09:19;27.80;99.90
74822;DHT22;63353;48.702;8.884;2023-06-10T10:11:45;28.40;99.90
74822;DHT22;63353;48.702;8.884;2023-06-10T10:14:15;29.10;99.90
74822;DHT22;63353;48.702;8.884;2023-06-10T10:16:42;29.40;99.90
74822;DHT22;63353;48.702;8.884;2023-06-10T10:19:22;29.40;99.90
74822;DHT22;63353;48.702;8.884;2023-06-10T10:22:18;29.40;99.90
74822;DHT22;63353;48.702;8.884;2023-06-10T10:24:50;29.50;99.90
74822;DHT22;63353;48.702;8.884;2023-06-10T10:27:40;29.40;99.90
74822;DHT22;63353;48.702;8.884;2023-06-10T10:30:11;29.50;99.90
74822;DHT22;63353;48.702;8.884;2023-06-10T10:32:45;30.00;99.90
74822;DHT22;63353;48.702;8.884;2023-06-10T10:35:19;30.50;99.90
74822;DHT22;63353;48.702;8.884;2023-06-10T10:37:53;30.50;99.90
74822;DHT22;63353;48.702;8.884;2023-06-10T10:40:27;29.20;99.90
74822;DHT22;63353;48.702;8.884;2023-06-10T10:43:01;29.30;99.50
74822;DHT22;63353;48.702;8.884;2023-06-10T10:45:34;29.50;99.20
74822;DHT22;63353;48.702;8.884;2023-06-10T10:48:08;29.30;99.00
74822;DHT22;63353;48.702;8.884;2023-06-10T10:50:37;29.00;99.90
74822;DHT22;63353;48.702;8.884;2023-06-10T10:53:04;28.60;99.40
74822;DHT22;63353;48.702;8.884;2023-06-10T10:55:30;28.20;99.90
74822;DHT22;63353;48.702;8.884;2023-06-10T10:58:09;28.70;99.90
74822;DHT22;63353;48.702;8.884;2023-06-10T11:00:41;29.60;99.90
74822;DHT22;63353;48.702;8.884;2023-06-10T11:03:15;30.00;98.70
74822;DHT22;63353;48.702;8.884;2023-06-10T11:05:49;30.80;99.60
74822;DHT22;63353;48.702;8.884;2023-06-10T11:10:59;31.30;98.00
74822;DHT22;63353;48.702;8.884;2023-06-10T11:13:26;31.10;96.00
74822;DHT22;63353;48.702;8.884;2023-06-10T11:15:57;30.90;95.70
74822;DHT22;63353;48.702;8.884;2023-06-10T11:18:30;31.30;96.80
74822;DHT22;63353;48.702;8.884;2023-06-10T11:21:04;31.60;95.30
74822;DHT22;63353;48.702;8.884;2023-06-10T11:29:04;31.90;93.40
74822;DHT22;63353;48.702;8.884;2023-06-10T11:31:50;32.50;90.60
74822;DHT22;63353;48.702;8.884;2023-06-10T11:34:22;32.40;91.40
74822;DHT22;63353;48.702;8.884;2023-06-10T11:36:58;32.50;91.10
74822;DHT22;63353;48.702;8.884;2023-06-10T11:39:34;33.10;90.30
74822;DHT22;63353;48.702;8.884;2023-06-10T11:42:03;32.70;89.50
74822;DHT22;63353;48.702;8.884;2023-06-10T11:44:29;31.80;89.40
74822;DHT22;63353;48.702;8.884;2023-06-10T11:46:58;31.50;90.80
74822;DHT22;63353;48.702;8.884;2023-06-10T11:49:27;32.20;93.00
74822;DHT22;63353;48.702;8.884;2023-06-10T11:51:52;32.30;88.80
74822;DHT22;63353;48.702;8.884;2023-06-10T11:54:21;32.40;90.60
74822;DHT22;63353;48.702;8.884;2023-06-10T11:56:47;32.20;87.90
74822;DHT22;63353;48.702;8.884;2023-06-10T11:59:18;31.60;88.10
74822;DHT22;63353;48.702;8.884;2023-06-10T12:01:47;31.40;91.90
74822;DHT22;63353;48.702;8.884;2023-06-10T12:04:30;31.60;90.80
74822;DHT22;63353;48.702;8.884;2023-06-10T12:07:05;32.40;91.50
74822;DHT22;63353;48.702;8.884;2023-06-10T12:09:37;32.20;91.00
74822;DHT22;63353;48.702;8.884;2023-06-10T12:12:06;32.00;88.20
74822;DHT22;63353;48.702;8.884;2023-06-10T12:15:03;32.50;90.30
74822;DHT22;63353;48.702;8.884;2023-06-10T12:17:52;32.40;85.40
74822;DHT22;63353;48.702;8.884;2023-06-10T12:20:29;31.40;85.30
74822;DHT22;63353;48.702;8.884;2023-06-10T12:23:10;31.20;88.00
74822;DHT22;63353;48.702;8.884;2023-06-10T12:25:37;31.90;89.50
74822;DHT22;63353;48.702;8.884;2023-06-10T12:28:04;32.10;87.10
74822;DHT22;63353;48.702;8.884;2023-06-10T12:30:33;32.70;87.50
74822;DHT22;63353;48.702;8.884;2023-06-10T12:33:16;33.40;88.50
74822;DHT22;63353;48.702;8.884;2023-06-10T12:35:52;33.90;84.00
74822;DHT22;63353;48.702;8.884;2023-06-10T12:38:22;33.20;83.30
74822;DHT22;63353;48.702;8.884;2023-06-10T12:41:16;32.30;80.80
74822;DHT22;63353;48.702;8.884;2023-06-10T12:43:46;31.80;84.30
74822;DHT22;63353;48.702;8.884;2023-06-10T12:46:11;31.20;85.30
74822;DHT22;63353;48.702;8.884;2023-06-10T12:48:49;30.70;85.30
74822;DHT22;63353;48.702;8.884;2023-06-10T12:51:36;30.90;88.20
74822;DHT22;63353;48.702;8.884;2023-06-10T12:54:11;31.60;90.20
74822;DHT22;63353;48.702;8.884;2023-06-10T12:56:49;32.30;87.00
74822;DHT22;63353;48.702;8.884;2023-06-10T12:59:27;33.30;85.60
74822;DHT22;63353;48.702;8.884;2023-06-10T13:01:54;33.30;85.40
74822;DHT22;63353;48.702;8.884;2023-06-10T13:04:23;32.30;80.40
74822;DHT22;63353;48.702;8.884;2023-06-10T13:06:55;31.50;85.10
74822;DHT22;63353;48.702;8.884;2023-06-10T13:09:23;31.00;84.40
74822;DHT22;63353;48.702;8.884;2023-06-10T13:11:52;30.90;84.40
74822;DHT22;63353;48.702;8.884;2023-06-10T13:14:27;31.30;86.70
74822;DHT22;63353;48.702;8.884;2023-06-10T13:16:54;31.80;82.60
74822;DHT22;63353;48.702;8.884;2023-06-10T13:19:20;31.80;81.50
74822;DHT22;63353;48.702;8.884;2023-06-10T13:21:49;31.30;83.40
74822;DHT22;63353;48.702;8.884;2023-06-10T13:24:21;30.90;83.00
74822;DHT22;63353;48.702;8.884;2023-06-10T13:26:49;30.70;84.40
74822;DHT22;63353;48.702;8.884;2023-06-10T13:29:33;30.50;84.50
74822;DHT22;63353;48.702;8.884;2023-06-10T13:32:06;30.30;86.40
74822;DHT22;63353;48.702;8.884;2023-06-10T13:34:37;30.30;86.20
74822;DHT22;63353;48.702;8.884;2023-06-10T13:37:09;30.20;83.70
74822;DHT22;63353;48.702;8.884;2023-06-10T13:39:40;30.10;86.30
74822;DHT22;63353;48.702;8.884;2023-06-10T13:42:06;30.10;84.50
74822;DHT22;63353;48.702;8.884;2023-06-10T13:44:33;30.10;88.10
74822;DHT22;63353;48.702;8.884;2023-06-10T13:47:04;30.10;86.90
74822;DHT22;63353;48.702;8.884;2023-06-10T13:49:30;30.10;89.40
74822;DHT22;63353;48.702;8.884;2023-06-10T13:51:56;29.90;86.40
74822;DHT22;63353;48.702;8.884;2023-06-10T13:54:25;30.00;90.30
74822;DHT22;63353;48.702;8.884;2023-06-10T13:56:50;31.00;85.10
74822;DHT22;63353;48.702;8.884;2023-06-10T13:59:20;32.30;86.80
74822;DHT22;63353;48.702;8.884;2023-06-10T14:01:46;33.40;80.10
74822;DHT22;63353;48.702;8.884;2023-06-10T14:04:12;34.00;78.20
74822;DHT22;63353;48.702;8.884;2023-06-10T14:06:43;34.90;75.60
74822;DHT22;63353;48.702;8.884;2023-06-10T14:09:10;35.40;75.40
74822;DHT22;63353;48.702;8.884;2023-06-10T14:11:40;35.80;73.60
74822;DHT22;63353;48.702;8.884;2023-06-10T14:14:05;35.00;70.60
74822;DHT22;63353;48.702;8.884;2023-06-10T14:16:31;35.10;72.40
74822;DHT22;63353;48.702;8.884;2023-06-10T14:19:00;35.60;72.60
74822;DHT22;63353;48.702;8.884;2023-06-10T14:21:26;36.60;73.80
74822;DHT22;63353;48.702;8.884;2023-06-10T14:23:54;37.30;67.60
74822;DHT22;63353;48.702;8.884;2023-06-10T14:26:29;36.90;69.30
74822;DHT22;63353;48.702;8.884;2023-06-10T14:28:57;37.70;67.70
74822;DHT22;63353;48.702;8.884;2023-06-10T14:31:29;36.80;66.10
74822;DHT22;63353;48.702;8.884;2023-06-10T14:33:57;36.80;65.50
74822;DHT22;63353;48.702;8.884;2023-06-10T14:36:23;36.30;65.60
74822;DHT22;63353;48.702;8.884;2023-06-10T14:38:55;35.50;64.60
74822;DHT22;63353;48.702;8.884;2023-06-10T14:41:22;35.30;66.90
74822;DHT22;63353;48.702;8.884;2023-06-10T14:43:53;35.90;68.40
74822;DHT22;63353;48.702;8.884;2023-06-10T14:46:22;36.30;64.50
74822;DHT22;63353;48.702;8.884;2023-06-10T14:48:48;34.80;64.60
74822;DHT22;63353;48.702;8.884;2023-06-10T14:51:14;35.20;68.50
74822;DHT22;63353;48.702;8.884;2023-06-10T14:53:40;36.20;64.00
74822;DHT22;63353;48.702;8.884;2023-06-10T14:56:11;36.90;61.90
74822;DHT22;63353;48.702;8.884;2023-06-10T14:58:43;37.80;63.30
74822;DHT22;63353;48.702;8.884;2023-06-10T15:01:12;38.60;62.60
74822;DHT22;63353;48.702;8.884;2023-06-10T15:03:50;39.70;62.60
74822;DHT22;63353;48.702;8.884;2023-06-10T15:06:21;39.80;59.80
74822;DHT22;63353;48.702;8.884;2023-06-10T15:09:03;38.20;59.60
74822;DHT22;63353;48.702;8.884;2023-06-10T15:11:31;36.30;60.20
74822;DHT22;63353;48.702;8.884;2023-06-10T15:13:57;35.10;64.00
74822;DHT22;63353;48.702;8.884;2023-06-10T15:16:23;34.20;65.20
74822;DHT22;63353;48.702;8.884;2023-06-10T15:18:48;35.10;64.40
74822;DHT22;63353;48.702;8.884;2023-06-10T15:21:14;36.80;65.00
74822;DHT22;63353;48.702;8.884;2023-06-10T15:23:40;36.90;59.40
74822;DHT22;63353;48.702;8.884;2023-06-10T15:26:05;35.60;60.40
74822;DHT22;63353;48.702;8.884;2023-06-10T15:28:31;34.80;64.40
74822;DHT22;63353;48.702;8.884;2023-06-10T15:31:04;34.70;63.00
74822;DHT22;63353;48.702;8.884;2023-06-10T15:33:36;34.60;62.80
74822;DHT22;63353;48.702;8.884;2023-06-10T15:36:02;36.30;63.90
74822;DHT22;63353;48.702;8.884;2023-06-10T15:38:27;36.10;61.20
74822;DHT22;63353;48.702;8.884;2023-06-10T15:40:53;34.80;61.40
74822;DHT22;63353;48.702;8.884;2023-06-10T15:43:19;33.30;63.70
74822;DHT22;63353;48.702;8.884;2023-06-10T15:45:45;32.20;66.00
74822;DHT22;63353;48.702;8.884;2023-06-10T15:48:10;32.60;68.10
74822;DHT22;63353;48.702;8.884;2023-06-10T15:50:36;34.30;64.80
74822;DHT22;63353;48.702;8.884;2023-06-10T15:53:05;36.00;64.70
74822;DHT22;63353;48.702;8.884;2023-06-10T15:55:34;37.80;62.10
74822;DHT22;63353;48.702;8.884;2023-06-10T15:58:03;39.40;60.40